createdAt,value
2022-08-20T00:00:05.508Z,64.32
2022-08-20T00:02:41.789Z,64.43
2022-08-20T00:05:12.578Z,65.39
2022-08-20T00:07:42.731Z,65.49
2022-08-20T00:10:12.549Z,65.46
2022-08-20T00:12:48.872Z,64.95
2022-08-20T00:15:24.161Z,64.79
2022-08-20T00:17:54.897Z,64.62
2022-08-20T00:20:26.648Z,65.31
2022-08-20T00:22:56.449Z,65.22
2022-08-20T00:25:26.408Z,65.70
2022-08-20T00:27:56.158Z,65.68
2022-08-20T00:30:30.256Z,65.08
2022-08-20T00:33:02.936Z,65.23
2022-08-20T00:35:35.726Z,65.26
2022-08-20T00:38:06.657Z,65.35
2022-08-20T00:40:41.949Z,65.10
2022-08-20T00:43:31.121Z,65.28
2022-08-20T00:46:05.926Z,65.72
2022-08-20T00:48:37.972Z,66.72
2022-08-20T00:51:11.098Z,66.78
2022-08-20T00:53:42.200Z,66.65
2022-08-20T00:56:13.884Z,66.27
2022-08-20T00:58:46.202Z,66.44
2022-08-20T01:01:19.357Z,66.47
2022-08-20T01:03:49.177Z,66.16
2022-08-20T01:06:18.926Z,66.29
2022-08-20T01:08:48.645Z,66.31
2022-08-20T01:11:22.218Z,67.01
2022-08-20T01:13:53.497Z,66.97
2022-08-20T01:16:29.149Z,66.69
2022-08-20T01:19:00.513Z,66.79
2022-08-20T01:21:33.629Z,66.29
2022-08-20T01:24:16.518Z,66.14
2022-08-20T01:26:50.259Z,66.32
2022-08-20T01:29:25.393Z,66.17
2022-08-20T01:32:01.219Z,67.09
2022-08-20T01:34:31.788Z,67.23
2022-08-20T01:37:02.031Z,67.17
2022-08-20T01:39:34.951Z,67.20
2022-08-20T01:42:15.416Z,67.57
2022-08-20T01:44:47.835Z,67.80
2022-08-20T01:47:22.374Z,67.83
2022-08-20T01:49:56.312Z,68.15
2022-08-20T01:52:33.854Z,68.01
2022-08-20T01:55:04.422Z,68.04
2022-08-20T01:57:37.674Z,67.98
2022-08-20T02:00:10.979Z,68.03
2022-08-20T02:02:50.550Z,69.02
2022-08-20T02:05:20.475Z,69.65
2022-08-20T02:07:50.487Z,69.08
2022-08-20T02:10:21.269Z,69.41
2022-08-20T02:12:53.622Z,69.74
2022-08-20T02:15:30.808Z,69.61
2022-08-20T02:18:08.164Z,69.26
2022-08-20T02:20:38.881Z,69.07
2022-08-20T02:23:10.132Z,68.94
2022-08-20T02:25:42.019Z,69.46
2022-08-20T02:28:17.169Z,68.87
2022-08-20T02:30:49.677Z,69.19
2022-08-20T02:33:24.185Z,69.16
2022-08-20T02:35:56.973Z,69.87
2022-08-20T02:38:27.912Z,69.24
2022-08-20T02:40:57.616Z,69.85
2022-08-20T02:43:32.115Z,70.19
2022-08-20T02:46:02.845Z,70.34
2022-08-20T02:48:33.668Z,71.05
2022-08-20T02:51:07.735Z,70.55
2022-08-20T02:53:41.848Z,70.80
2022-08-20T02:56:12.460Z,70.73
2022-08-20T02:58:45.343Z,70.68
2022-08-20T03:01:19.601Z,70.96
2022-08-20T03:03:49.572Z,71.10
2022-08-20T03:06:19.390Z,70.67
2022-08-20T03:08:49.064Z,70.90
2022-08-20T03:11:19.166Z,71.11
2022-08-20T03:13:52.260Z,71.77
2022-08-20T03:16:22.438Z,71.97
2022-08-20T03:18:52.590Z,71.60
2022-08-20T03:21:22.381Z,71.74
2022-08-20T03:23:52.141Z,72.45
2022-08-20T03:26:21.826Z,72.50
2022-08-20T03:28:54.082Z,72.23
2022-08-20T03:31:23.864Z,72.09
2022-08-20T03:33:53.920Z,72.29
2022-08-20T03:36:27.939Z,72.34
2022-08-20T03:38:59.276Z,72.62
2022-08-20T03:41:29.108Z,72.15
2022-08-20T03:44:01.506Z,72.74
2022-08-20T03:46:31.390Z,73.23
2022-08-20T03:49:01.075Z,73.02
2022-08-20T03:51:31.211Z,74.31
2022-08-20T03:54:01.424Z,75.14
2022-08-20T03:56:31.812Z,75.38
2022-08-20T03:59:04.425Z,75.13
2022-08-20T04:01:45.114Z,75.50
2022-08-20T04:04:16.241Z,75.49
2022-08-20T04:06:47.612Z,76.07
2022-08-20T04:09:17.613Z,75.75
2022-08-20T04:11:47.338Z,75.92
2022-08-20T04:14:20.776Z,76.06
2022-08-20T04:16:50.682Z,76.21
2022-08-20T04:19:21.440Z,76.82
2022-08-20T04:21:51.049Z,76.47
2022-08-20T04:24:22.506Z,76.53
2022-08-20T04:27:02.750Z,76.70
2022-08-20T04:29:36.623Z,76.71
2022-08-20T04:32:08.223Z,76.45
2022-08-20T04:34:40.684Z,77.00
2022-08-20T04:37:17.023Z,76.91
2022-08-20T04:40:07.390Z,77.55
2022-08-20T04:42:36.553Z,77.39
2022-08-20T04:45:10.718Z,77.21
2022-08-20T04:47:40.379Z,77.85
2022-08-20T04:50:12.055Z,77.50
2022-08-20T04:52:42.693Z,78.67
2022-08-20T04:55:12.912Z,79.77
2022-08-20T04:57:42.615Z,81.73
2022-08-20T05:00:19.111Z,82.58
2022-08-20T05:02:49.395Z,84.79
2022-08-20T05:05:19.636Z,86.00
2022-08-20T05:07:49.347Z,86.66
2022-08-20T05:10:21.976Z,88.27
2022-08-20T05:12:56.456Z,87.51
2022-08-20T05:15:29.595Z,86.68
2022-08-20T05:18:04.767Z,86.60
2022-08-20T05:20:38.915Z,87.03
2022-08-20T05:23:11.030Z,86.37
2022-08-20T05:25:41.770Z,86.23
2022-08-20T05:28:13.668Z,86.78
2022-08-20T05:30:48.365Z,86.97
2022-08-20T05:33:21.143Z,86.61
2022-08-20T05:35:53.171Z,86.25
2022-08-20T05:38:26.738Z,86.14
2022-08-20T05:40:56.566Z,86.72
2022-08-20T05:43:26.245Z,86.49
2022-08-20T05:46:00.621Z,86.32
2022-08-20T05:48:31.013Z,86.38
2022-08-20T05:51:00.884Z,87.32
2022-08-20T05:53:30.546Z,87.23
2022-08-20T05:56:01.829Z,87.12
2022-08-20T05:58:32.945Z,86.79
2022-08-20T06:01:05.757Z,86.58
2022-08-20T06:03:48.083Z,86.36
2022-08-20T06:06:28.476Z,86.47
2022-08-20T06:09:07.455Z,87.25
2022-08-20T06:11:37.605Z,87.25
2022-08-20T06:14:07.616Z,87.45
2022-08-20T06:16:40.100Z,87.63
2022-08-20T06:19:27.267Z,88.72
2022-08-20T06:22:02.268Z,88.25
2022-08-20T06:24:47.323Z,88.48
2022-08-20T06:27:18.436Z,89.08
2022-08-20T06:29:48.231Z,89.15
2022-08-20T06:32:28.897Z,87.98
2022-08-20T06:35:04.157Z,88.41
2022-08-20T06:37:36.525Z,88.13
2022-08-20T06:40:10.299Z,88.18
2022-08-20T06:42:47.436Z,88.36
2022-08-20T06:45:20.050Z,88.27
2022-08-20T06:47:53.372Z,87.70
2022-08-20T06:50:25.286Z,87.63
2022-08-20T06:52:55.102Z,87.76
2022-08-20T06:55:25.881Z,88.19
2022-08-20T06:58:00.254Z,87.67
2022-08-20T07:00:33.266Z,87.77
2022-08-20T07:03:06.846Z,86.90
2022-08-20T07:05:42.287Z,86.38
2022-08-20T07:08:13.699Z,87.89
2022-08-20T07:10:44.388Z,88.18
2022-08-20T07:13:16.427Z,88.06
2022-08-20T07:15:47.153Z,88.00
2022-08-20T07:18:28.357Z,87.68
2022-08-20T07:20:58.533Z,87.55
2022-08-20T07:23:29.352Z,86.42
2022-08-20T07:25:59.103Z,85.61
2022-08-20T07:28:32.031Z,85.16
2022-08-20T07:31:15.972Z,86.38
2022-08-20T07:33:50.474Z,86.89
2022-08-20T07:36:21.769Z,87.94
2022-08-20T07:38:52.637Z,86.21
2022-08-20T07:41:23.782Z,87.51
2022-08-20T07:43:53.701Z,88.42
2022-08-20T07:46:23.978Z,87.08
2022-08-20T07:49:05.466Z,87.33
2022-08-20T07:51:35.900Z,86.21
2022-08-20T07:54:06.126Z,86.82
2022-08-20T07:56:35.781Z,87.24
2022-08-20T07:59:06.393Z,87.46
2022-08-20T08:01:36.057Z,88.10
2022-08-20T08:04:08.690Z,88.79
2022-08-20T08:06:44.980Z,87.64
2022-08-20T08:09:17.165Z,86.79
2022-08-20T08:11:52.565Z,85.49
2022-08-20T08:14:26.931Z,85.47
2022-08-20T08:16:58.499Z,84.38
2022-08-20T08:19:38.746Z,83.64
2022-08-20T08:22:12.326Z,83.67
2022-08-20T08:24:56.639Z,82.22
2022-08-20T08:27:27.387Z,82.70
2022-08-20T08:29:57.013Z,83.33
2022-08-20T08:32:26.639Z,84.37
2022-08-20T08:34:58.775Z,84.88
2022-08-20T08:37:30.773Z,83.91
2022-08-20T08:40:01.525Z,85.00
2022-08-20T08:42:43.256Z,84.62
2022-08-20T08:45:16.054Z,86.19
2022-08-20T08:47:47.371Z,85.73
2022-08-20T08:50:49.889Z,87.05
2022-08-20T08:53:22.556Z,87.57
2022-08-20T08:55:52.132Z,88.69
2022-08-20T08:58:21.707Z,89.23
2022-08-20T09:00:55.953Z,89.61
2022-08-20T09:03:30.994Z,89.25
2022-08-20T09:06:05.141Z,89.82
2022-08-20T09:08:38.884Z,89.14
2022-08-20T09:11:10.621Z,88.82
2022-08-20T09:13:40.744Z,88.38
2022-08-20T09:16:10.421Z,87.72
2022-08-20T09:18:40.024Z,87.33
2022-08-20T09:21:14.475Z,87.25
2022-08-20T09:23:44.418Z,87.23
2022-08-20T09:26:14.206Z,85.94
2022-08-20T09:28:43.875Z,84.89
2022-08-20T09:31:18.247Z,84.79
2022-08-20T09:33:49.106Z,84.71
2022-08-20T09:36:31.664Z,85.58
2022-08-20T09:39:03.066Z,85.73
2022-08-20T09:41:34.644Z,86.00
2022-08-20T09:44:04.600Z,85.80
2022-08-20T09:46:34.311Z,85.00
2022-08-20T09:49:04.068Z,84.76
2022-08-20T09:51:38.304Z,84.73
2022-08-20T09:54:08.772Z,85.31
2022-08-20T09:56:38.565Z,84.32
2022-08-20T09:59:08.206Z,82.36
2022-08-20T10:01:37.871Z,80.93
2022-08-20T10:04:08.026Z,80.41
2022-08-20T10:06:44.478Z,79.79
2022-08-20T10:09:14.128Z,80.89
2022-08-20T10:11:43.760Z,80.72
2022-08-20T10:14:13.499Z,80.72
2022-08-20T10:16:43.128Z,76.89
2022-08-20T10:19:12.736Z,79.12
2022-08-20T10:21:44.933Z,77.43
2022-08-20T10:24:14.527Z,77.14
2022-08-20T10:26:44.163Z,78.94
2022-08-20T10:29:13.964Z,78.35
2022-08-20T10:31:43.694Z,76.83
2022-08-20T10:34:13.481Z,76.14
2022-08-20T10:36:47.521Z,71.62
2022-08-20T10:39:17.485Z,74.21
2022-08-20T10:41:47.156Z,75.28
2022-08-20T10:44:17.714Z,76.00
2022-08-20T10:46:47.712Z,76.74
2022-08-20T10:49:17.270Z,75.77
2022-08-20T10:51:49.695Z,74.57
2022-08-20T10:54:19.279Z,75.95
2022-08-20T10:56:49.513Z,73.70
2022-08-20T10:59:19.895Z,73.27
2022-08-20T11:01:49.514Z,72.85
2022-08-20T11:04:19.213Z,72.47
2022-08-20T11:06:51.450Z,73.00
2022-08-20T11:09:21.063Z,74.11
2022-08-20T11:11:50.716Z,73.53
2022-08-20T11:14:20.422Z,75.50
2022-08-20T11:16:50.163Z,73.59
2022-08-20T11:19:19.947Z,73.06
2022-08-20T11:21:52.272Z,72.88
2022-08-20T11:24:22.053Z,74.27
2022-08-20T11:26:53.795Z,73.64
2022-08-20T11:29:24.967Z,72.29
2022-08-20T11:31:54.834Z,71.18
2022-08-20T11:34:24.567Z,71.42
2022-08-20T11:36:57.281Z,69.49
2022-08-20T11:39:27.077Z,69.28
2022-08-20T11:41:56.930Z,69.33
2022-08-20T11:44:26.610Z,69.90
2022-08-20T11:46:59.994Z,69.66
2022-08-20T11:49:29.768Z,66.31
2022-08-20T11:52:02.350Z,68.53
2022-08-20T11:54:34.154Z,66.78
2022-08-20T11:57:03.996Z,66.61
2022-08-20T11:59:33.793Z,67.70
2022-08-20T12:02:03.833Z,65.66
2022-08-20T12:04:35.152Z,62.18
2022-08-20T12:07:19.325Z,64.67
2022-08-20T12:09:50.703Z,65.42
2022-08-20T12:12:23.450Z,64.85
2022-08-20T12:14:54.108Z,65.73
2022-08-20T12:17:28.812Z,64.43
2022-08-20T12:20:00.809Z,64.31
2022-08-20T12:22:33.133Z,65.38
2022-08-20T12:25:03.021Z,64.00
2022-08-20T12:27:34.685Z,64.48
2022-08-20T12:30:07.912Z,64.67
2022-08-20T12:32:37.866Z,62.65
2022-08-20T12:35:08.854Z,62.20
2022-08-20T12:37:41.783Z,60.24
2022-08-20T12:40:14.134Z,59.87
2022-08-20T12:42:44.324Z,60.51
2022-08-20T12:45:14.458Z,58.64
2022-08-20T12:47:45.885Z,58.38
2022-08-20T12:50:18.610Z,59.18
2022-08-20T12:52:51.716Z,59.35
2022-08-20T12:55:23.053Z,59.54
2022-08-20T12:57:56.470Z,59.74
2022-08-20T13:00:28.836Z,59.23
2022-08-20T13:03:01.604Z,56.46
2022-08-20T13:05:31.774Z,58.11
2022-08-20T13:08:05.997Z,57.17
2022-08-20T13:10:38.224Z,56.54
2022-08-20T13:13:07.973Z,56.44
2022-08-20T13:15:39.327Z,56.60
2022-08-20T13:18:10.116Z,55.44
2022-08-20T13:20:39.949Z,54.17
2022-08-20T13:23:12.165Z,54.45
2022-08-20T13:25:41.851Z,54.90
2022-08-20T13:28:11.674Z,56.39
2022-08-20T13:30:41.607Z,54.14
2022-08-20T13:33:11.717Z,53.02
2022-08-20T13:35:41.501Z,51.96
2022-08-20T13:38:13.746Z,52.30
2022-08-20T13:40:43.564Z,52.58
2022-08-20T13:43:17.166Z,52.83
2022-08-20T13:45:46.854Z,53.74
2022-08-20T13:48:16.593Z,54.12
2022-08-20T13:50:47.656Z,53.37
2022-08-20T13:53:20.351Z,53.27
2022-08-20T13:55:50.484Z,52.44
2022-08-20T13:58:22.373Z,51.57
2022-08-20T14:00:52.621Z,52.37
2022-08-20T14:03:25.300Z,52.01
2022-08-20T14:05:55.526Z,52.34
2022-08-20T14:08:27.769Z,52.96
2022-08-20T14:10:57.585Z,50.68
2022-08-20T14:13:29.920Z,51.07
2022-08-20T14:15:59.608Z,51.62
2022-08-20T14:18:30.869Z,52.48
2022-08-20T14:21:01.554Z,52.37
2022-08-20T14:23:36.772Z,53.57
2022-08-20T14:26:07.956Z,53.53
2022-08-20T14:28:37.627Z,53.79
2022-08-20T14:31:07.352Z,53.43
2022-08-20T14:33:39.332Z,53.30
2022-08-20T14:36:12.465Z,51.73
2022-08-20T14:38:45.885Z,52.38
2022-08-20T14:41:15.647Z,51.33
2022-08-20T14:43:45.254Z,52.20
2022-08-20T14:46:14.933Z,52.26
2022-08-20T14:48:44.601Z,51.83
2022-08-20T14:51:22.968Z,51.66
2022-08-20T14:53:55.238Z,50.94
2022-08-20T14:56:24.936Z,50.72
2022-08-20T14:58:54.596Z,50.44
2022-08-20T15:01:24.294Z,51.29
2022-08-20T15:03:54.016Z,50.52
2022-08-20T15:06:23.813Z,50.64
2022-08-20T15:08:56.769Z,50.25
2022-08-20T15:11:26.505Z,50.08
2022-08-20T15:14:00.926Z,49.94
2022-08-20T15:16:30.687Z,50.09
2022-08-20T15:19:00.389Z,50.11
2022-08-20T15:21:30.546Z,50.67
2022-08-20T15:24:19.701Z,50.02
2022-08-20T15:26:49.629Z,50.86
2022-08-20T15:29:23.240Z,49.99
2022-08-20T15:31:53.305Z,50.58
2022-08-20T15:34:23.018Z,49.33
2022-08-20T15:36:52.741Z,48.94
2022-08-20T15:39:25.043Z,48.73
2022-08-20T15:41:54.739Z,48.84
2022-08-20T15:44:24.430Z,48.61
2022-08-20T15:46:54.585Z,49.44
2022-08-20T15:49:24.596Z,49.50
2022-08-20T15:51:54.382Z,49.91
2022-08-20T15:54:30.150Z,49.36
2022-08-20T15:57:05.745Z,49.15
2022-08-20T16:00:06.820Z,49.64
2022-08-20T16:03:14.573Z,49.53
2022-08-20T16:05:50.850Z,50.17
2022-08-20T16:08:46.794Z,49.20
2022-08-20T16:11:31.562Z,48.88
2022-08-20T16:14:18.211Z,48.48
2022-08-20T16:16:51.422Z,47.82
2022-08-20T16:19:39.647Z,48.11
2022-08-20T16:22:11.722Z,49.54
2022-08-20T16:24:41.530Z,48.65
2022-08-20T16:27:21.329Z,49.25
2022-08-20T16:29:59.179Z,49.16
2022-08-20T16:32:38.539Z,48.63
2022-08-20T16:35:30.204Z,48.29
2022-08-20T16:38:05.055Z,49.14
2022-08-20T16:40:49.720Z,48.35
2022-08-20T16:43:28.945Z,48.12
2022-08-20T16:46:04.562Z,48.14
2022-08-20T16:48:46.155Z,48.73
2022-08-20T16:51:21.770Z,49.05
2022-08-20T16:53:51.505Z,49.27
2022-08-20T16:56:34.495Z,49.22
2022-08-20T16:59:12.984Z,48.66
2022-08-20T17:02:06.901Z,48.73
2022-08-20T17:04:59.267Z,49.46
2022-08-20T17:07:43.137Z,49.17
2022-08-20T17:10:20.442Z,49.42
2022-08-20T17:12:56.302Z,50.12
2022-08-20T17:15:31.477Z,50.04
2022-08-20T17:18:19.414Z,49.08
2022-08-20T17:20:49.130Z,49.42
2022-08-20T17:23:21.741Z,50.20
2022-08-20T17:26:00.037Z,50.23
2022-08-20T17:28:34.990Z,50.18
2022-08-20T17:31:07.950Z,49.86
2022-08-20T17:33:41.472Z,50.34
2022-08-20T17:36:20.165Z,50.72
2022-08-20T17:38:52.524Z,50.57
2022-08-20T17:41:24.748Z,50.65
2022-08-20T17:44:01.145Z,49.61
2022-08-20T17:46:48.137Z,48.82
2022-08-20T17:49:21.911Z,49.58
2022-08-20T17:51:54.611Z,49.18
2022-08-20T17:54:28.631Z,48.80
2022-08-20T17:57:02.922Z,49.59
2022-08-20T17:59:59.822Z,49.99
2022-08-20T18:02:31.355Z,50.35
2022-08-20T18:05:01.184Z,50.36
2022-08-20T18:07:37.743Z,50.89
2022-08-20T18:10:13.376Z,50.45
2022-08-20T18:12:46.723Z,50.35
2022-08-20T18:15:24.493Z,50.66
2022-08-20T18:18:18.272Z,51.14
2022-08-20T18:21:16.545Z,51.40
2022-08-20T18:23:50.461Z,51.91
2022-08-20T18:26:24.001Z,51.68
2022-08-20T18:28:59.279Z,52.58
2022-08-20T18:31:32.990Z,52.08
2022-08-20T18:34:17.412Z,50.73
2022-08-20T18:36:57.403Z,51.45
2022-08-20T18:39:32.176Z,51.83
2022-08-20T18:42:04.422Z,52.20
2022-08-20T18:44:44.051Z,52.39
2022-08-20T18:47:24.086Z,52.13
2022-08-20T18:50:19.142Z,52.57
2022-08-20T18:52:54.618Z,53.27
2022-08-20T18:55:34.316Z,53.50
2022-08-20T18:58:09.033Z,53.94
2022-08-20T19:00:49.138Z,54.57
2022-08-20T19:03:27.144Z,54.36
2022-08-20T19:06:13.688Z,54.76
2022-08-20T19:08:53.227Z,54.93
2022-08-20T19:11:45.202Z,55.44
2022-08-20T19:14:38.295Z,55.26
2022-08-20T19:17:12.816Z,55.60
2022-08-20T19:19:42.755Z,56.00
2022-08-20T19:22:19.137Z,56.29
2022-08-20T19:24:56.801Z,56.71
2022-08-20T19:27:27.449Z,57.51
2022-08-20T19:29:58.404Z,57.89
2022-08-20T19:32:31.179Z,57.75
2022-08-20T19:35:03.209Z,58.27
2022-08-20T19:37:44.334Z,59.40
2022-08-20T19:40:28.537Z,60.34
2022-08-20T19:43:00.690Z,60.16
2022-08-20T19:45:38.531Z,59.92
2022-08-20T19:48:26.993Z,60.67
2022-08-20T19:51:15.782Z,60.43
2022-08-20T19:53:51.012Z,61.52
2022-08-20T19:56:22.976Z,61.42
2022-08-20T19:59:01.891Z,61.71
2022-08-20T20:01:32.307Z,62.41
2022-08-20T20:04:06.265Z,62.04
2022-08-20T20:06:40.455Z,62.11
2022-08-20T20:09:22.202Z,62.02
2022-08-20T20:11:57.026Z,62.47
2022-08-20T20:14:30.566Z,63.00
2022-08-20T20:17:00.900Z,64.04
2022-08-20T20:19:30.614Z,63.94
2022-08-20T20:22:18.700Z,63.46
2022-08-20T20:25:02.688Z,63.56
2022-08-20T20:27:33.258Z,64.51
2022-08-20T20:30:04.709Z,64.52
2022-08-20T20:32:36.298Z,64.73
2022-08-20T20:35:09.143Z,64.20
2022-08-20T20:37:49.730Z,64.83
2022-08-20T20:40:30.637Z,64.11
2022-08-20T20:43:07.883Z,65.27
2022-08-20T20:45:40.463Z,65.66
2022-08-20T20:48:21.289Z,65.42
2022-08-20T20:50:52.683Z,66.03
2022-08-20T20:53:51.228Z,65.62
2022-08-20T20:56:39.869Z,66.11
2022-08-20T20:59:11.990Z,66.32
2022-08-20T21:01:49.138Z,67.20
2022-08-20T21:04:23.995Z,66.78
2022-08-20T21:06:55.580Z,67.25
2022-08-20T21:09:26.594Z,67.74
2022-08-20T21:11:58.877Z,67.37
2022-08-20T21:14:28.826Z,67.90
2022-08-20T21:17:00.740Z,67.36
2022-08-20T21:19:31.304Z,68.01
2022-08-20T21:22:01.057Z,68.32
2022-08-20T21:24:30.741Z,68.36
2022-08-20T21:27:04.034Z,69.37
2022-08-20T21:29:34.649Z,69.50
2022-08-20T21:32:04.308Z,69.67
2022-08-20T21:34:34.396Z,70.21
2022-08-20T21:37:04.133Z,70.42
2022-08-20T21:39:33.994Z,70.42
2022-08-20T21:42:18.563Z,70.99
2022-08-20T21:44:58.476Z,71.31
2022-08-20T21:47:28.379Z,70.62
2022-08-20T21:49:58.185Z,70.69
2022-08-20T21:52:27.904Z,70.88
2022-08-20T21:54:57.629Z,70.74
2022-08-20T21:57:33.266Z,70.38
2022-08-20T22:00:04.490Z,70.74
2022-08-20T22:02:34.938Z,71.20
2022-08-20T22:05:05.301Z,71.91
2022-08-20T22:07:35.106Z,71.23
2022-08-20T22:10:05.496Z,71.51
2022-08-20T22:12:37.813Z,72.46
2022-08-20T22:15:09.378Z,72.02
2022-08-20T22:17:39.136Z,71.63
2022-08-20T22:20:10.317Z,71.83
2022-08-20T22:22:39.995Z,71.28
2022-08-20T22:25:15.834Z,71.87
2022-08-20T22:27:48.175Z,72.16
2022-08-20T22:30:17.899Z,72.30
2022-08-20T22:33:00.792Z,72.33
2022-08-20T22:35:30.692Z,72.55
2022-08-20T22:38:00.541Z,71.96
2022-08-20T22:40:30.339Z,72.87
2022-08-20T22:43:02.647Z,72.42
2022-08-20T22:45:32.538Z,72.38
2022-08-20T22:48:02.985Z,73.30
2022-08-20T22:50:33.253Z,73.24
2022-08-20T22:53:04.522Z,73.19
2022-08-20T22:55:35.302Z,73.30
2022-08-20T22:58:09.594Z,73.38
2022-08-20T23:00:40.693Z,74.40
2022-08-20T23:03:10.651Z,74.18
2022-08-20T23:05:41.135Z,74.25
2022-08-20T23:08:12.221Z,74.99
2022-08-20T23:10:42.214Z,74.79
2022-08-20T23:13:15.515Z,75.36
2022-08-20T23:15:45.906Z,75.61
2022-08-20T23:18:18.497Z,75.95
2022-08-20T23:20:56.048Z,75.82
2022-08-20T23:23:28.127Z,76.04
2022-08-20T23:25:58.348Z,75.80
2022-08-20T23:28:30.662Z,75.26
2022-08-20T23:31:00.441Z,74.88
2022-08-20T23:33:31.535Z,74.73
2022-08-20T23:36:02.394Z,74.31
2022-08-20T23:38:32.199Z,75.14
2022-08-20T23:41:02.022Z,75.54
2022-08-20T23:43:34.283Z,75.74
2022-08-20T23:46:07.005Z,75.88
2022-08-20T23:48:36.942Z,76.17
2022-08-20T23:51:08.210Z,75.27
2022-08-20T23:53:38.759Z,74.71
2022-08-20T23:56:08.750Z,74.50
2022-08-20T23:58:41.014Z,75.00
